Pagrindinis puslapis
METAR-TAF:

METAR-TAF

Oro uostai :

Torsby, Švedija

platuma: 60-09-17N, ilguma: 12-59-40E, Aukštis: 120 m

Dabartinis oras

Ataskaita buvo paskelbta 47 minutes, ne 02:50 UTC
Vėjas 3 kt iš Šiaurės/Šiaurės Vakarų
Temperatūra 8°C
Drėgmė 100%
Slėgis 1023 hPa
Matomumas: 0250 m
Rūkas lopais

METAR: ESST 240250Z AUTO 33003KT 0250 R16/P2000D R34/0800N BCFG FEW098/// 08/08 Q1023

Laikas: 05:37 (03:37 UTC)


TAF: trūkstamas

Orai ataskaitas ir orų prognozės (METAR, TAF).

turimą stotys yra geltonos ir raudonos taškus žemėlapyje.

Perkelti pele per norėdami pamatyti stoties vardą.

Tada spustelėkite, norėdami matyti oro stebėjimo ir prognozės.

Norėdami pakeisti žemėlapį: spustelėkite ant žalios mygtukų su juodo kryžiaus žemyn,; žalią mygtuką su brūkšneliu, jei norite nutolinti; arba žalių rodyklių gretimoms žemėlapius.


METAR-TAF: